createdAt,value
2023-01-29T00:02:40.880Z,40.7
2023-01-29T00:07:41.032Z,40.7
2023-01-29T00:12:41.407Z,40.8
2023-01-29T00:17:44.216Z,40.9
2023-01-29T00:22:46.742Z,40.7
2023-01-29T00:27:46.470Z,40.6
2023-01-29T00:32:46.662Z,40.6
2023-01-29T00:37:45.666Z,40.8
2023-01-29T00:42:48.795Z,40.6
2023-01-29T00:47:48.270Z,40.9
2023-01-29T00:52:50.980Z,40.8
2023-01-29T00:57:50.845Z,40.9
2023-01-29T01:02:51.016Z,40.8
2023-01-29T01:07:51.304Z,40.9
2023-01-29T01:12:51.530Z,40.5
2023-01-29T01:17:51.651Z,40.8
2023-01-29T01:22:56.153Z,40.9
2023-01-29T01:27:58.026Z,40.9
2023-01-29T01:32:57.494Z,40.8
2023-01-29T01:37:57.445Z,40.7
2023-01-29T01:42:57.719Z,40.8
2023-01-29T01:47:58.009Z,41
2023-01-29T01:52:58.385Z,40.8
2023-01-29T01:57:58.610Z,41
2023-01-29T02:03:01.381Z,40.9
2023-01-29T02:08:01.183Z,40.8
2023-01-29T02:13:01.383Z,40.6
2023-01-29T02:18:01.765Z,41.1
2023-01-29T02:23:03.377Z,40.8
2023-01-29T02:28:02.075Z,41.1
2023-01-29T02:33:02.345Z,40.8
2023-01-29T02:38:02.807Z,40.9
2023-01-29T02:43:02.776Z,40.9
2023-01-29T02:48:03.057Z,40.9
2023-01-29T02:53:03.169Z,41
2023-01-29T02:58:03.378Z,40.8
2023-01-29T03:03:03.481Z,40.9
2023-01-29T03:08:03.581Z,41
2023-01-29T03:13:03.756Z,40.9
2023-01-29T03:18:03.807Z,41.1
2023-01-29T03:23:04.113Z,40.9
2023-01-29T03:28:03.988Z,40.8
2023-01-29T03:33:04.400Z,40.9
2023-01-29T03:38:04.568Z,41
2023-01-29T03:43:04.625Z,40.9
2023-01-29T03:48:04.748Z,40.8
2023-01-29T03:53:04.870Z,41.1
2023-01-29T03:58:05.039Z,41.2
2023-01-29T04:03:05.249Z,40.9
2023-01-29T04:08:05.283Z,40.9
2023-01-29T04:13:05.465Z,40.8
2023-01-29T04:18:05.648Z,41
2023-01-29T04:23:05.772Z,41.1
2023-01-29T04:28:08.647Z,41.1
2023-01-29T04:33:08.347Z,40.8
2023-01-29T04:38:08.424Z,40.9
2023-01-29T04:43:08.651Z,41.2
2023-01-29T04:48:09.376Z,41
2023-01-29T04:53:09.526Z,41
2023-01-29T04:58:11.605Z,41
2023-01-29T05:03:11.369Z,41.3
2023-01-29T05:08:11.487Z,41.1
2023-01-29T05:13:11.669Z,41.1
2023-01-29T05:18:12.071Z,40.9
2023-01-29T05:23:12.232Z,41
2023-01-29T05:28:14.891Z,41.1
2023-01-29T05:33:17.353Z,41.2
2023-01-29T05:38:17.014Z,41.3
2023-01-29T05:43:17.216Z,41.2
2023-01-29T05:48:17.186Z,41.3
2023-01-29T05:53:17.368Z,41.2
2023-01-29T05:58:17.591Z,41.2
2023-01-29T06:03:17.877Z,41.3
2023-01-29T06:08:19.058Z,41.2
2023-01-29T06:13:19.094Z,41.1
2023-01-29T06:18:22.050Z,41.1
2023-01-29T06:23:22.499Z,41.2
2023-01-29T06:28:22.321Z,41.1
2023-01-29T06:33:22.535Z,41
2023-01-29T06:38:22.711Z,40.9
2023-01-29T06:43:22.816Z,40.9
2023-01-29T06:48:22.897Z,40.8
2023-01-29T06:53:23.177Z,40.8
2023-01-29T06:58:24.058Z,41.1
2023-01-29T07:03:24.073Z,41.2
2023-01-29T07:08:24.317Z,41
2023-01-29T07:13:27.363Z,41.1
2023-01-29T07:18:29.756Z,41
2023-01-29T07:23:32.293Z,40.8
2023-01-29T07:28:32.001Z,40.9
2023-01-29T07:33:32.094Z,40.8
2023-01-29T07:38:32.404Z,40.8
2023-01-29T07:43:32.402Z,40.9
2023-01-29T07:48:35.284Z,40.8
2023-01-29T07:53:37.776Z,40.7
2023-01-29T07:58:37.256Z,40.8
2023-01-29T08:03:37.287Z,40.8
2023-01-29T08:08:37.443Z,40.8
2023-01-29T08:13:37.542Z,40.9
2023-01-29T08:18:37.509Z,40.6
2023-01-29T08:23:37.801Z,40.7
2023-01-29T08:28:38.047Z,40.7
2023-01-29T08:33:39.407Z,40.7
2023-01-29T08:38:38.469Z,40.7
2023-01-29T08:43:38.785Z,40.5
2023-01-29T08:48:39.077Z,40.6
2023-01-29T08:53:39.227Z,40.7
2023-01-29T08:58:39.482Z,40.6
2023-01-29T09:03:39.641Z,40.5
2023-01-29T09:08:39.599Z,40.5
2023-01-29T09:13:42.640Z,40.7
2023-01-29T09:18:42.382Z,40.5
2023-01-29T09:23:45.287Z,40.4
2023-01-29T09:28:45.435Z,40.4
2023-01-29T09:33:45.605Z,40.5
2023-01-29T09:38:45.676Z,40.5
2023-01-29T09:43:46.053Z,40.5
2023-01-29T09:48:46.411Z,40.7
2023-01-29T09:53:46.408Z,40.4
2023-01-29T09:58:48.395Z,40.4
2023-01-29T10:03:48.059Z,40.3
2023-01-29T10:08:50.862Z,40.3
2023-01-29T10:13:50.525Z,40.4
2023-01-29T10:18:50.443Z,40.3
2023-01-29T10:23:50.210Z,40.3
2023-01-29T10:28:50.385Z,40.2
2023-01-29T10:34:01.298Z,40
2023-01-29T10:38:50.838Z,39.9
2023-01-29T10:43:51.011Z,40.1
2023-01-29T10:48:51.050Z,39.9
2023-01-29T10:53:51.361Z,39.9
2023-01-29T10:58:52.289Z,40
2023-01-29T11:03:55.305Z,39.8
2023-01-29T11:08:54.670Z,39.9
2023-01-29T11:13:55.005Z,39.6
2023-01-29T11:18:55.057Z,39.5
2023-01-29T11:23:55.262Z,39.5
2023-01-29T11:28:57.970Z,39.6
2023-01-29T11:33:57.827Z,39.5
2023-01-29T11:38:58.052Z,39.6
2023-01-29T11:43:58.479Z,39.4
2023-01-29T11:48:59.173Z,39.6
2023-01-29T11:53:58.832Z,39.4
2023-01-29T11:58:58.926Z,39.4
2023-01-29T12:03:59.066Z,39.3
2023-01-29T12:08:59.261Z,39.4
2023-01-29T12:13:59.619Z,39.4
2023-01-29T12:18:59.893Z,39.6
2023-01-29T12:24:00.043Z,39.6
2023-01-29T12:29:00.391Z,39.8
2023-01-29T12:34:00.600Z,39.8
2023-01-29T12:39:02.697Z,39.8
2023-01-29T12:44:02.671Z,39.8
2023-01-29T12:49:02.753Z,39.9
2023-01-29T12:54:05.850Z,39.9
2023-01-29T12:59:05.656Z,39.9
2023-01-29T13:04:05.886Z,39.9
2023-01-29T13:09:08.534Z,39.8
2023-01-29T13:14:09.014Z,39.9
2023-01-29T13:19:09.161Z,39.9
2023-01-29T13:24:09.214Z,39.8
2023-01-29T13:29:09.739Z,39.5
2023-01-29T13:34:09.953Z,39.6
2023-01-29T13:39:10.199Z,39.6
2023-01-29T13:44:10.525Z,39.6
2023-01-29T13:49:10.514Z,39.6
2023-01-29T13:54:11.906Z,39.6
2023-01-29T13:59:14.704Z,39.3
2023-01-29T14:04:14.501Z,39.3
2023-01-29T14:09:15.066Z,39.3
2023-01-29T14:14:17.816Z,39.3
2023-01-29T14:19:17.500Z,39.3
2023-01-29T14:24:17.614Z,39.2
2023-01-29T14:29:21.595Z,39.3
2023-01-29T14:34:17.978Z,39.2
2023-01-29T14:39:18.122Z,39.1
2023-01-29T14:44:18.037Z,39.1
2023-01-29T14:49:18.108Z,39.1
2023-01-29T14:54:18.345Z,39.1
2023-01-29T14:59:18.767Z,39.1
2023-01-29T15:04:18.981Z,39.1
2023-01-29T15:09:19.326Z,39
2023-01-29T15:14:19.665Z,39.1
2023-01-29T15:19:19.624Z,39.2
2023-01-29T15:24:20.032Z,39.4
2023-01-29T15:29:21.207Z,39.4
2023-01-29T15:34:21.403Z,39.5
2023-01-29T15:39:21.411Z,39.5
2023-01-29T15:44:24.511Z,39.7
2023-01-29T15:49:24.231Z,39.7
2023-01-29T15:54:24.504Z,39.7
2023-01-29T15:59:24.230Z,39.7
2023-01-29T16:04:27.195Z,39.7
2023-01-29T16:09:26.756Z,39.7
2023-01-29T16:14:29.569Z,39.6
2023-01-29T16:19:28.776Z,39.7
2023-01-29T16:24:28.975Z,39.6
2023-01-29T16:29:29.214Z,39.7
2023-01-29T16:34:29.313Z,39.9
2023-01-29T16:39:29.447Z,39.7
2023-01-29T16:44:29.640Z,39.7
2023-01-29T16:49:29.652Z,39.8
2023-01-29T16:54:30.162Z,39.9
2023-01-29T16:59:30.161Z,39.8
2023-01-29T17:04:30.314Z,39.7
2023-01-29T17:09:30.546Z,39.8
2023-01-29T17:14:30.876Z,39.8
2023-01-29T17:19:31.224Z,39.7
2023-01-29T17:24:34.080Z,39.6
2023-01-29T17:29:35.513Z,39.6
2023-01-29T17:34:35.475Z,39.6
2023-01-29T17:39:35.594Z,39.6
2023-01-29T17:44:35.821Z,39.5
2023-01-29T17:49:36.000Z,39.5
2023-01-29T17:54:39.972Z,39.3
2023-01-29T17:59:42.161Z,39.6
2023-01-29T18:04:44.631Z,39.5
2023-01-29T18:09:46.834Z,39.9
2023-01-29T18:14:46.455Z,40
2023-01-29T18:19:49.075Z,40
2023-01-29T18:24:48.564Z,40.1
2023-01-29T18:29:48.779Z,40.2
2023-01-29T18:34:51.651Z,40.2
2023-01-29T18:39:55.132Z,40.2
2023-01-29T18:44:54.773Z,40.3
2023-01-29T18:49:57.709Z,40.3
2023-01-29T18:55:00.108Z,40.3
2023-01-29T18:59:59.837Z,40.4
2023-01-29T19:05:00.942Z,40.3
2023-01-29T19:10:01.313Z,40.4
2023-01-29T19:15:01.559Z,40.4
2023-01-29T19:20:01.664Z,40.4
2023-01-29T19:25:01.838Z,40.5
2023-01-29T19:30:01.438Z,40.4
2023-01-29T19:35:04.240Z,40.5
2023-01-29T19:45:09.726Z,40.6
2023-01-29T19:50:08.890Z,40.6
2023-01-29T19:55:11.951Z,40.8
2023-01-29T20:00:11.685Z,40.6
2023-01-29T20:05:11.978Z,40.6
2023-01-29T20:10:12.181Z,40.7
2023-01-29T20:15:15.111Z,40.7
2023-01-29T20:20:14.959Z,40.5
2023-01-29T20:25:14.733Z,40.6
2023-01-29T20:30:18.012Z,40.7
2023-01-29T20:35:17.266Z,40.6
2023-01-29T20:40:17.686Z,40.6
2023-01-29T20:45:17.648Z,40.7
2023-01-29T20:50:17.972Z,40.7
2023-01-29T20:55:18.003Z,40.7
2023-01-29T21:00:18.269Z,40.7
2023-01-29T21:05:18.182Z,40.7
2023-01-29T21:10:21.055Z,40.9
2023-01-29T21:15:20.856Z,40.8
2023-01-29T21:20:20.956Z,40.9
2023-01-29T21:25:20.969Z,41
2023-01-29T21:30:21.380Z,40.8
2023-01-29T21:35:21.428Z,40.9
2023-01-29T21:40:21.639Z,40.9
2023-01-29T21:45:23.025Z,40.7
2023-01-29T21:50:24.087Z,40.9
2023-01-29T21:55:24.076Z,41
2023-01-29T22:00:24.093Z,41
2023-01-29T22:05:24.246Z,40.9
2023-01-29T22:10:25.580Z,40.9
2023-01-29T22:15:25.739Z,41
2023-01-29T22:20:28.906Z,41
2023-01-29T22:25:31.255Z,41.1
2023-01-29T22:30:30.867Z,41.1
2023-01-29T22:35:31.131Z,41.1
2023-01-29T22:40:31.266Z,41
2023-01-29T22:45:31.346Z,40.9
2023-01-29T22:50:32.390Z,41
2023-01-29T22:55:32.588Z,40.9
2023-01-29T23:00:32.592Z,40.9
2023-01-29T23:05:33.891Z,40.7
2023-01-29T23:10:34.155Z,40.8
2023-01-29T23:15:34.532Z,40.9
2023-01-29T23:20:34.568Z,40.9
2023-01-29T23:25:34.903Z,41.1
2023-01-29T23:30:35.150Z,40.8
2023-01-29T23:35:35.314Z,40.8
2023-01-29T23:40:35.504Z,40.9
2023-01-29T23:45:35.719Z,40.8
2023-01-29T23:50:35.843Z,40.8
2023-01-29T23:55:36.131Z,40.7
